createdAt,value
2019-03-22T00:00:20.209Z,1013.82
2019-03-22T00:01:20.207Z,1013.79
2019-03-22T00:02:20.200Z,1013.77
2019-03-22T00:03:20.173Z,1013.79
2019-03-22T00:04:20.160Z,1013.83
2019-03-22T00:05:20.170Z,1013.81
2019-03-22T00:06:20.136Z,1013.79
2019-03-22T00:07:20.126Z,1013.81
2019-03-22T00:08:20.139Z,1013.78
2019-03-22T00:09:20.105Z,1013.78
2019-03-22T00:10:20.093Z,1013.76
2019-03-22T00:11:20.081Z,1013.73
2019-03-22T00:12:20.070Z,1013.77
2019-03-22T00:13:20.086Z,1013.73
2019-03-22T00:14:20.073Z,1013.76
2019-03-22T00:15:20.035Z,1013.75
2019-03-22T00:16:20.025Z,1013.78
2019-03-22T00:17:20.014Z,1013.76
2019-03-22T00:18:20.003Z,1013.73
2019-03-22T00:19:20.019Z,1013.73
2019-03-22T00:20:19.980Z,1013.70
2019-03-22T00:21:19.987Z,1013.68
2019-03-22T00:22:19.986Z,1013.72
2019-03-22T00:23:19.946Z,1013.75
2019-03-22T00:24:19.940Z,1013.74
2019-03-22T00:25:19.943Z,1013.74
2019-03-22T00:26:19.917Z,1013.73
2019-03-22T00:27:19.930Z,1013.71
2019-03-22T00:28:19.905Z,1013.71
2019-03-22T00:29:19.878Z,1013.72
2019-03-22T00:30:19.896Z,1013.72
2019-03-22T00:31:19.882Z,1013.75
2019-03-22T00:32:19.871Z,1013.66
2019-03-22T00:33:19.857Z,1013.68
2019-03-22T00:34:19.823Z,1013.68
2019-03-22T00:35:19.815Z,1013.64
2019-03-22T00:36:19.821Z,1013.70
2019-03-22T00:37:19.790Z,1013.66
2019-03-22T00:38:19.781Z,1013.70
2019-03-22T00:39:19.782Z,1013.67
2019-03-22T00:40:19.771Z,1013.70
2019-03-22T00:41:19.745Z,1013.62
2019-03-22T00:42:19.735Z,1013.62
2019-03-22T00:43:19.723Z,1013.63
2019-03-22T00:44:19.726Z,1013.61
2019-03-22T00:45:19.722Z,1013.64
2019-03-22T00:46:19.689Z,1013.66
2019-03-22T00:47:19.679Z,1013.69
2019-03-22T00:48:19.665Z,1013.64
2019-03-22T00:49:19.655Z,1013.66
2019-03-22T00:50:19.667Z,1013.66
2019-03-22T00:51:19.635Z,1013.65
2019-03-22T00:52:19.646Z,1013.68
2019-03-22T00:53:19.610Z,1013.69
2019-03-22T00:54:19.600Z,1013.67
2019-03-22T00:55:19.588Z,1013.69
2019-03-22T00:56:19.576Z,1013.69
2019-03-22T00:57:27.962Z,1013.66
2019-03-22T00:58:20.554Z,1013.64
2019-03-22T00:59:19.544Z,1013.68
2019-03-22T01:00:19.556Z,1013.63
2019-03-22T01:01:19.523Z,1013.63
2019-03-22T01:02:19.512Z,1013.62
2019-03-22T01:03:19.525Z,1013.67
2019-03-22T01:04:19.490Z,1013.64
2019-03-22T01:05:19.503Z,1013.62
2019-03-22T01:06:19.468Z,1013.61
2019-03-22T01:07:19.454Z,1013.59
2019-03-22T01:08:19.444Z,1013.63
2019-03-22T01:09:19.458Z,1013.59
2019-03-22T01:10:19.421Z,1013.61
2019-03-22T01:11:19.430Z,1013.60
2019-03-22T01:12:19.399Z,1013.54
2019-03-22T01:13:19.387Z,1013.55
2019-03-22T01:14:19.379Z,1013.57
2019-03-22T01:15:19.367Z,1013.63
2019-03-22T01:16:19.375Z,1013.57
2019-03-22T01:17:19.344Z,1013.59
2019-03-22T01:18:19.394Z,1013.60
2019-03-22T01:19:19.321Z,1013.60
2019-03-22T01:20:19.336Z,1013.54
2019-03-22T01:21:19.300Z,1013.51
2019-03-22T01:22:19.289Z,1013.45
2019-03-22T01:23:19.274Z,1013.49
2019-03-22T01:24:19.265Z,1013.50
2019-03-22T01:25:19.282Z,1013.52
2019-03-22T01:26:19.243Z,1013.54
2019-03-22T01:27:19.232Z,1013.50
2019-03-22T01:28:19.221Z,1013.56
2019-03-22T01:29:19.234Z,1013.53
2019-03-22T01:30:19.196Z,1013.51
2019-03-22T01:31:19.188Z,1013.48
2019-03-22T01:32:19.175Z,1013.47
2019-03-22T01:33:19.187Z,1013.50
2019-03-22T01:34:19.152Z,1013.51
2019-03-22T01:35:19.217Z,1013.48
2019-03-22T01:36:19.129Z,1013.48
2019-03-22T01:37:19.121Z,1013.49
2019-03-22T01:38:19.132Z,1013.51
2019-03-22T01:39:19.103Z,1013.48
2019-03-22T01:40:19.087Z,1013.48
2019-03-22T01:41:19.073Z,1013.49
2019-03-22T01:42:19.065Z,1013.51
2019-03-22T01:43:19.086Z,1013.51
2019-03-22T01:44:19.039Z,1013.50
2019-03-22T01:45:19.029Z,1013.49
2019-03-22T01:46:19.023Z,1013.49
2019-03-22T01:47:19.006Z,1013.50
2019-03-22T01:48:19.016Z,1013.52
2019-03-22T01:49:18.984Z,1013.50
2019-03-22T01:50:18.974Z,1013.49
2019-03-22T01:51:18.985Z,1013.50
2019-03-22T01:52:18.949Z,1013.54
2019-03-22T01:53:18.941Z,1013.52
2019-03-22T01:54:18.926Z,1013.55
2019-03-22T01:55:18.939Z,1013.59
2019-03-22T01:56:18.910Z,1013.56
2019-03-22T01:57:18.895Z,1013.58
2019-03-22T01:58:18.883Z,1013.56
2019-03-22T01:59:18.873Z,1013.55
2019-03-22T02:00:18.884Z,1013.59
2019-03-22T02:01:18.872Z,1013.55
2019-03-22T02:02:18.837Z,1013.55
2019-03-22T02:03:18.852Z,1013.53
2019-03-22T02:04:18.815Z,1013.57
2019-03-22T02:05:18.805Z,1013.53
2019-03-22T02:06:18.794Z,1013.54
2019-03-22T02:07:18.809Z,1013.57
2019-03-22T02:08:18.773Z,1013.55
2019-03-22T02:09:18.765Z,1013.54
2019-03-22T02:10:18.781Z,1013.54
2019-03-22T02:11:18.738Z,1013.54
2019-03-22T02:12:18.729Z,1013.56
2019-03-22T02:13:20.718Z,1013.55
2019-03-22T02:14:18.708Z,1013.53
2019-03-22T02:15:18.699Z,1013.53
2019-03-22T02:16:18.683Z,1013.54
2019-03-22T02:17:18.671Z,1013.55
2019-03-22T02:18:18.679Z,1013.52
2019-03-22T02:19:18.651Z,1013.52
2019-03-22T02:20:18.639Z,1013.52
2019-03-22T02:21:18.653Z,1013.47
2019-03-22T02:22:18.615Z,1013.44
2019-03-22T02:23:18.606Z,1013.44
2019-03-22T02:24:18.594Z,1013.42
2019-03-22T02:25:18.603Z,1013.41
2019-03-22T02:26:18.605Z,1013.37
2019-03-22T02:27:18.615Z,1013.35
2019-03-22T02:28:18.548Z,1013.36
2019-03-22T02:29:18.538Z,1013.36
2019-03-22T02:30:18.561Z,1013.38
2019-03-22T02:31:18.539Z,1013.39
2019-03-22T02:32:18.515Z,1013.42
2019-03-22T02:33:18.494Z,1013.37
2019-03-22T02:34:18.482Z,1013.40
2019-03-22T02:35:28.371Z,1013.39
2019-03-22T02:36:19.463Z,1013.44
2019-03-22T02:37:18.451Z,1013.41
2019-03-22T02:38:18.440Z,1013.44
2019-03-22T02:39:18.453Z,1013.41
2019-03-22T02:40:18.439Z,1013.40
2019-03-22T02:41:18.408Z,1013.36
2019-03-22T02:42:18.395Z,1013.39
2019-03-22T02:43:18.386Z,1013.37
2019-03-22T02:44:18.409Z,1013.38
2019-03-22T02:45:18.361Z,1013.34
2019-03-22T02:46:18.350Z,1013.34
2019-03-22T02:47:18.336Z,1013.33
2019-03-22T02:48:18.348Z,1013.35
2019-03-22T02:49:18.316Z,1013.40
2019-03-22T02:50:19.758Z,1013.38
2019-03-22T02:51:18.300Z,1013.45
2019-03-22T02:52:18.286Z,1013.41
2019-03-22T02:53:18.269Z,1013.42
2019-03-22T02:54:18.258Z,1013.42
2019-03-22T02:55:18.273Z,1013.36
2019-03-22T02:56:18.261Z,1013.34
2019-03-22T02:57:18.225Z,1013.33
2019-03-22T02:58:20.862Z,1013.31
2019-03-22T02:59:18.245Z,1013.29
2019-03-22T03:00:18.190Z,1013.28
2019-03-22T03:01:18.181Z,1013.29
2019-03-22T03:02:18.168Z,1013.33
2019-03-22T03:03:18.157Z,1013.31
2019-03-22T03:04:18.169Z,1013.33
2019-03-22T03:05:18.161Z,1013.34
2019-03-22T03:06:18.162Z,1013.34
2019-03-22T03:07:18.114Z,1013.37
2019-03-22T03:08:18.100Z,1013.35
2019-03-22T03:09:18.095Z,1013.40
2019-03-22T03:10:18.081Z,1013.42
2019-03-22T03:11:18.095Z,1013.41
2019-03-22T03:12:18.059Z,1013.33
2019-03-22T03:13:18.049Z,1013.36
2019-03-22T03:14:18.034Z,1013.35
2019-03-22T03:15:18.060Z,1013.31
2019-03-22T03:16:18.017Z,1013.36
2019-03-22T03:17:18.000Z,1013.29
2019-03-22T03:18:17.992Z,1013.36
2019-03-22T03:19:17.978Z,1013.40
2019-03-22T03:20:17.998Z,1013.38
2019-03-22T03:21:17.957Z,1013.36
2019-03-22T03:22:17.948Z,1013.43
2019-03-22T03:23:17.935Z,1013.40
2019-03-22T03:24:17.962Z,1013.40
2019-03-22T03:25:17.926Z,1013.40
2019-03-22T03:26:17.902Z,1013.42
2019-03-22T03:27:17.897Z,1013.36
2019-03-22T03:28:17.878Z,1013.36
2019-03-22T03:29:17.882Z,1013.33
2019-03-22T03:30:17.913Z,1013.33
2019-03-22T03:31:17.846Z,1013.39
2019-03-22T03:32:17.835Z,1013.43
2019-03-22T03:33:17.841Z,1013.48
2019-03-22T03:34:17.836Z,1013.41
2019-03-22T03:35:17.857Z,1013.42
2019-03-22T03:36:17.786Z,1013.40
2019-03-22T03:37:17.776Z,1013.36
2019-03-22T03:38:17.763Z,1013.34
2019-03-22T03:39:17.755Z,1013.35
2019-03-22T03:40:17.766Z,1013.39
2019-03-22T03:41:17.731Z,1013.37
2019-03-22T03:42:17.723Z,1013.42
2019-03-22T03:43:17.712Z,1013.41
2019-03-22T03:44:17.699Z,1013.41
2019-03-22T03:45:17.719Z,1013.45
2019-03-22T03:46:17.680Z,1013.47
2019-03-22T03:47:17.669Z,1013.48
2019-03-22T03:48:17.653Z,1013.45
2019-03-22T03:49:17.644Z,1013.45
2019-03-22T03:50:17.659Z,1013.48
2019-03-22T03:51:17.624Z,1013.46
2019-03-22T03:52:17.614Z,1013.43
2019-03-22T03:53:17.625Z,1013.43
2019-03-22T03:54:17.622Z,1013.44
2019-03-22T03:55:17.578Z,1013.47
2019-03-22T03:56:17.568Z,1013.47
2019-03-22T03:57:17.554Z,1013.45
2019-03-22T03:58:17.543Z,1013.49
2019-03-22T03:59:17.554Z,1013.49
2019-03-22T04:00:17.519Z,1013.54
2019-03-22T04:01:17.508Z,1013.50
2019-03-22T04:02:17.524Z,1013.55
2019-03-22T04:03:17.485Z,1013.51
2019-03-22T04:04:17.515Z,1013.48
2019-03-22T04:05:17.468Z,1013.45
2019-03-22T04:06:17.482Z,1013.44
2019-03-22T04:07:17.441Z,1013.47
2019-03-22T04:08:17.443Z,1013.42
2019-03-22T04:09:17.418Z,1013.42
2019-03-22T04:10:17.408Z,1013.42
2019-03-22T04:11:17.421Z,1013.41
2019-03-22T04:12:17.386Z,1013.38
2019-03-22T04:13:17.394Z,1013.41
2019-03-22T04:14:17.392Z,1013.44
2019-03-22T04:15:17.372Z,1013.40
2019-03-22T04:16:17.341Z,1013.40
2019-03-22T04:17:17.329Z,1013.39
2019-03-22T04:18:17.346Z,1013.40
2019-03-22T04:19:17.309Z,1013.36
2019-03-22T04:20:17.295Z,1013.34
2019-03-22T04:21:17.285Z,1013.35
2019-03-22T04:22:17.275Z,1013.34
2019-03-22T04:23:17.293Z,1013.29
2019-03-22T04:24:17.253Z,1013.33
2019-03-22T04:25:17.242Z,1013.33
2019-03-22T04:26:17.251Z,1013.40
2019-03-22T04:27:17.224Z,1013.36
2019-03-22T04:28:17.232Z,1013.38
2019-03-22T04:29:17.195Z,1013.40
2019-03-22T04:30:17.190Z,1013.42
2019-03-22T04:31:17.172Z,1013.41
2019-03-22T04:32:17.185Z,1013.37
2019-03-22T04:33:17.149Z,1013.36
2019-03-22T04:34:17.139Z,1013.38
2019-03-22T04:35:17.131Z,1013.38
2019-03-22T04:36:17.132Z,1013.38
2019-03-22T04:37:17.111Z,1013.37
2019-03-22T04:38:17.130Z,1013.41
2019-03-22T04:39:17.082Z,1013.45
2019-03-22T04:40:17.072Z,1013.44
2019-03-22T04:41:17.062Z,1013.46
2019-03-22T04:42:17.049Z,1013.42
2019-03-22T04:43:17.062Z,1013.48
2019-03-22T04:44:17.027Z,1013.45
2019-03-22T04:45:17.148Z,1013.43
2019-03-22T04:46:17.005Z,1013.44
2019-03-22T04:47:16.994Z,1013.48
2019-03-22T04:48:16.984Z,1013.46
2019-03-22T04:49:16.971Z,1013.47
2019-03-22T04:50:16.974Z,1013.44
2019-03-22T04:51:16.949Z,1013.41
2019-03-22T04:52:16.942Z,1013.40
2019-03-22T04:53:16.948Z,1013.38
2019-03-22T04:54:16.923Z,1013.42
2019-03-22T04:55:16.907Z,1013.39
2019-03-22T04:56:16.921Z,1013.39
2019-03-22T04:57:16.884Z,1013.34
2019-03-22T04:58:16.874Z,1013.32
2019-03-22T04:59:19.475Z,1013.31
2019-03-22T05:00:16.852Z,1013.34
2019-03-22T05:01:16.865Z,1013.28
2019-03-22T05:02:16.829Z,1013.31
2019-03-22T05:03:16.818Z,1013.34
2019-03-22T05:04:16.805Z,1013.35
2019-03-22T05:05:16.795Z,1013.37
2019-03-22T05:06:16.817Z,1013.38
2019-03-22T05:07:16.773Z,1013.39
2019-03-22T05:08:16.760Z,1013.40
2019-03-22T05:09:16.753Z,1013.41
2019-03-22T05:10:16.740Z,1013.42
2019-03-22T05:11:16.749Z,1013.38
2019-03-22T05:12:16.721Z,1013.43
2019-03-22T05:13:16.729Z,1013.39
2019-03-22T05:14:16.695Z,1013.39
2019-03-22T05:15:16.684Z,1013.38
2019-03-22T05:16:16.674Z,1013.42
2019-03-22T05:17:16.661Z,1013.37
2019-03-22T05:18:16.744Z,1013.38
2019-03-22T05:19:16.641Z,1013.40
2019-03-22T05:20:16.627Z,1013.41
2019-03-22T05:21:16.615Z,1013.44
2019-03-22T05:22:16.628Z,1013.44
2019-03-22T05:23:16.727Z,1013.46
2019-03-22T05:24:18.270Z,1013.46
2019-03-22T05:25:16.572Z,1013.53
2019-03-22T05:26:16.562Z,1013.47
2019-03-22T05:27:16.551Z,1013.54
2019-03-22T05:28:16.568Z,1013.50
2019-03-22T05:29:16.527Z,1013.54
2019-03-22T05:30:16.518Z,1013.57
2019-03-22T05:31:16.504Z,1013.53
2019-03-22T05:32:16.492Z,1013.56
2019-03-22T05:33:16.519Z,1013.58
2019-03-22T05:34:16.471Z,1013.56
2019-03-22T05:35:16.465Z,1013.57
2019-03-22T05:36:16.450Z,1013.63
2019-03-22T05:37:16.438Z,1013.56
2019-03-22T05:38:16.451Z,1013.58
2019-03-22T05:39:16.442Z,1013.61
2019-03-22T05:40:16.408Z,1013.59
2019-03-22T05:41:16.393Z,1013.62
2019-03-22T05:42:16.400Z,1013.62
2019-03-22T05:43:16.369Z,1013.63
2019-03-22T05:44:16.394Z,1013.63
2019-03-22T05:45:16.349Z,1013.63
2019-03-22T05:46:16.337Z,1013.63
2019-03-22T05:47:16.326Z,1013.60
2019-03-22T05:48:16.315Z,1013.66
2019-03-22T05:49:16.329Z,1013.61
2019-03-22T05:50:16.295Z,1013.61
2019-03-22T05:51:16.307Z,1013.68
2019-03-22T05:52:16.271Z,1013.69
2019-03-22T05:53:16.266Z,1013.67
2019-03-22T05:54:16.250Z,1013.70
2019-03-22T05:55:16.259Z,1013.66
2019-03-22T05:56:16.253Z,1013.66
2019-03-22T05:57:16.219Z,1013.66
2019-03-22T05:58:16.204Z,1013.70
2019-03-22T05:59:16.196Z,1013.69
2019-03-22T06:00:16.205Z,1013.73
2019-03-22T06:01:16.173Z,1013.72
2019-03-22T06:02:16.160Z,1013.74
2019-03-22T06:03:16.173Z,1013.73
2019-03-22T06:04:16.165Z,1013.77
2019-03-22T06:05:16.126Z,1013.75
2019-03-22T06:06:16.115Z,1013.77
2019-03-22T06:07:16.135Z,1013.77
2019-03-22T06:08:16.094Z,1013.73
2019-03-22T06:09:16.081Z,1013.76
2019-03-22T06:10:16.069Z,1013.76
2019-03-22T06:11:16.058Z,1013.69
2019-03-22T06:12:16.073Z,1013.74
2019-03-22T06:13:16.039Z,1013.76
2019-03-22T06:14:16.025Z,1013.74
2019-03-22T06:15:16.017Z,1013.79
2019-03-22T06:16:16.004Z,1013.78
2019-03-22T06:17:16.016Z,1013.83
2019-03-22T06:18:16.179Z,1013.84
2019-03-22T06:19:15.970Z,1013.80
2019-03-22T06:20:15.982Z,1013.85
2019-03-22T06:21:15.946Z,1013.83
2019-03-22T06:22:15.939Z,1013.86
2019-03-22T06:23:15.925Z,1013.81
2019-03-22T06:24:15.913Z,1013.88
2019-03-22T06:25:15.917Z,1013.88
2019-03-22T06:26:15.922Z,1013.88
2019-03-22T06:27:15.883Z,1013.95
2019-03-22T06:28:15.866Z,1013.89
2019-03-22T06:29:15.857Z,1013.96
2019-03-22T06:30:15.873Z,1013.96
2019-03-22T06:31:15.835Z,1013.97
2019-03-22T06:32:15.845Z,1013.94
2019-03-22T06:33:15.813Z,1013.93
2019-03-22T06:34:15.814Z,1013.97
2019-03-22T06:35:15.793Z,1013.98
2019-03-22T06:36:15.782Z,1013.98
2019-03-22T06:37:15.791Z,1013.96
2019-03-22T06:38:15.756Z,1013.98
2019-03-22T06:39:15.744Z,1013.92
2019-03-22T06:40:15.761Z,1013.92
2019-03-22T06:41:15.726Z,1013.88
2019-03-22T06:42:15.712Z,1013.87
2019-03-22T06:43:15.701Z,1013.89
2019-03-22T06:44:15.690Z,1013.92
2019-03-22T06:45:15.717Z,1013.94
2019-03-22T06:46:15.686Z,1013.89
2019-03-22T06:47:15.660Z,1013.90
2019-03-22T06:48:15.651Z,1013.87
2019-03-22T06:49:15.644Z,1013.94
2019-03-22T06:50:15.646Z,1013.89
2019-03-22T06:51:15.634Z,1013.88
2019-03-22T06:52:15.600Z,1013.88
2019-03-22T06:53:15.590Z,1013.93
2019-03-22T06:54:15.578Z,1013.92
2019-03-22T06:55:15.611Z,1013.90
2019-03-22T06:56:15.554Z,1013.89
2019-03-22T06:57:15.553Z,1013.88
2019-03-22T06:58:15.532Z,1013.82
2019-03-22T06:59:15.523Z,1013.79
2019-03-22T07:00:15.532Z,1013.87
2019-03-22T07:01:15.501Z,1013.85
2019-03-22T07:02:15.491Z,1013.84
2019-03-22T07:03:15.480Z,1013.87
2019-03-22T07:04:15.493Z,1013.89
2019-03-22T07:05:15.453Z,1013.92
2019-03-22T07:06:15.444Z,1013.85
2019-03-22T07:07:15.433Z,1013.83
2019-03-22T07:08:15.422Z,1013.82
2019-03-22T07:09:15.423Z,1013.82
2019-03-22T07:10:15.399Z,1013.81
2019-03-22T07:11:15.412Z,1013.81
2019-03-22T07:12:15.375Z,1013.80
2019-03-22T07:13:15.363Z,1013.90
2019-03-22T07:14:15.376Z,1013.88
2019-03-22T07:15:15.346Z,1013.89
2019-03-22T07:16:15.332Z,1013.88
2019-03-22T07:17:15.323Z,1013.86
2019-03-22T07:18:15.309Z,1013.96
2019-03-22T07:19:15.322Z,1013.92
2019-03-22T07:20:15.286Z,1013.96
2019-03-22T07:21:15.279Z,1013.98
2019-03-22T07:22:15.265Z,1013.94
2019-03-22T07:23:15.253Z,1013.96
2019-03-22T07:24:15.264Z,1013.91
2019-03-22T07:25:15.258Z,1013.93
2019-03-22T07:26:15.217Z,1013.94
2019-03-22T07:27:15.207Z,1013.91
2019-03-22T07:28:15.196Z,1013.94
2019-03-22T07:29:15.188Z,1013.93
2019-03-22T07:30:19.003Z,1013.98
2019-03-22T07:31:15.165Z,1014.00
2019-03-22T07:32:15.174Z,1013.92
2019-03-22T07:33:15.140Z,1013.97
2019-03-22T07:34:15.128Z,1013.95
2019-03-22T07:35:15.140Z,1013.96
2019-03-22T07:36:15.105Z,1013.96
2019-03-22T07:37:15.096Z,1014.00
2019-03-22T07:38:15.084Z,1013.98
2019-03-22T07:39:15.076Z,1013.93
2019-03-22T07:40:15.096Z,1013.93
2019-03-22T07:41:15.052Z,1013.96
2019-03-22T07:42:17.473Z,1013.97
2019-03-22T07:43:15.027Z,1013.96
2019-03-22T07:44:15.015Z,1013.99
2019-03-22T07:45:15.029Z,1013.97
2019-03-22T07:46:14.995Z,1014.03
2019-03-22T07:47:14.990Z,1014.05
2019-03-22T07:48:14.971Z,1014.00
2019-03-22T07:49:14.964Z,1014.04
2019-03-22T07:50:14.973Z,1014.03
2019-03-22T07:51:14.939Z,1014.00
2019-03-22T07:52:14.926Z,1014.01
2019-03-22T07:53:14.921Z,1014.01
2019-03-22T07:54:14.912Z,1014.00
2019-03-22T07:55:14.922Z,1013.97
2019-03-22T07:56:14.917Z,1014.00
2019-03-22T07:57:14.872Z,1013.98
2019-03-22T07:58:14.859Z,1013.98
2019-03-22T07:59:14.849Z,1013.97
2019-03-22T08:00:14.836Z,1013.96
2019-03-22T08:01:14.848Z,1013.90
2019-03-22T08:02:14.815Z,1013.89
2019-03-22T08:03:14.834Z,1013.92
2019-03-22T08:04:14.791Z,1013.88
2019-03-22T08:05:14.860Z,1013.92
2019-03-22T08:06:14.765Z,1013.88
2019-03-22T08:07:14.758Z,1013.83
2019-03-22T08:08:14.773Z,1013.85
2019-03-22T08:09:15.096Z,1013.84
2019-03-22T08:10:14.723Z,1013.85
2019-03-22T08:11:14.738Z,1013.88
2019-03-22T08:12:14.727Z,1013.86
2019-03-22T08:13:14.708Z,1013.88
2019-03-22T08:14:16.410Z,1013.81
2019-03-22T08:15:14.667Z,1013.83
2019-03-22T08:16:14.718Z,1013.82
2019-03-22T08:17:14.643Z,1013.78
2019-03-22T08:18:14.632Z,1013.79
2019-03-22T08:19:14.625Z,1013.75
2019-03-22T08:20:14.641Z,1013.78
2019-03-22T08:21:14.620Z,1013.76
2019-03-22T08:22:14.589Z,1013.77
2019-03-22T08:23:14.575Z,1013.76
2019-03-22T08:24:14.571Z,1013.77
2019-03-22T08:25:14.554Z,1013.79
2019-03-22T08:26:15.081Z,1013.77
2019-03-22T08:27:14.529Z,1013.82
2019-03-22T08:28:14.549Z,1013.85
2019-03-22T08:29:14.507Z,1013.83
2019-03-22T08:30:14.901Z,1013.85
2019-03-22T08:31:14.486Z,1013.81
2019-03-22T08:32:14.499Z,1013.80
2019-03-22T08:33:14.466Z,1013.81
2019-03-22T08:34:14.475Z,1013.77
2019-03-22T08:35:14.440Z,1013.78
2019-03-22T08:36:15.039Z,1013.75
2019-03-22T08:37:14.420Z,1013.74
2019-03-22T08:38:16.307Z,1013.73
2019-03-22T08:39:14.418Z,1013.75
2019-03-22T08:40:14.400Z,1013.76
2019-03-22T08:41:14.373Z,1013.77
2019-03-22T08:42:14.387Z,1013.75
2019-03-22T08:43:14.352Z,1013.79
2019-03-22T08:44:14.402Z,1013.76
2019-03-22T08:45:14.366Z,1013.82
2019-03-22T08:46:14.332Z,1013.77
2019-03-22T08:47:14.326Z,1013.80
2019-03-22T08:48:14.316Z,1013.79
2019-03-22T08:49:14.348Z,1013.82
2019-03-22T08:50:14.276Z,1013.76
2019-03-22T08:51:14.265Z,1013.77
2019-03-22T08:52:14.295Z,1013.80
2019-03-22T08:53:14.302Z,1013.81
2019-03-22T08:54:14.239Z,1013.72
2019-03-22T08:55:14.250Z,1013.69
2019-03-22T08:56:14.204Z,1013.71
2019-03-22T08:57:14.196Z,1013.71
2019-03-22T08:58:14.187Z,1013.71
2019-03-22T08:59:14.211Z,1013.69
2019-03-22T09:00:14.203Z,1013.67
2019-03-22T09:01:14.167Z,1013.63
2019-03-22T09:02:14.139Z,1013.65
2019-03-22T09:03:14.153Z,1013.62
2019-03-22T09:04:14.126Z,1013.68
2019-03-22T09:05:14.127Z,1013.69
2019-03-22T09:06:14.127Z,1013.69
2019-03-22T09:07:14.120Z,1013.70
2019-03-22T09:08:16.101Z,1013.68
2019-03-22T09:09:14.108Z,1013.65
2019-03-22T09:10:14.055Z,1013.63
2019-03-22T09:11:14.082Z,1013.61
2019-03-22T09:12:14.181Z,1013.57
2019-03-22T09:13:14.169Z,1013.49
2019-03-22T09:14:14.016Z,1013.53
2019-03-22T09:15:13.993Z,1013.54
2019-03-22T09:16:13.982Z,1013.46
2019-03-22T09:17:14.020Z,1013.45
2019-03-22T09:18:15.499Z,1013.43
2019-03-22T09:19:13.957Z,1013.41
2019-03-22T09:20:13.938Z,1013.35
2019-03-22T09:21:13.944Z,1013.40
2019-03-22T09:22:13.968Z,1013.32
2019-03-22T09:23:13.973Z,1013.30
2019-03-22T09:24:13.888Z,1013.29
2019-03-22T09:25:13.933Z,1013.25
2019-03-22T09:26:13.866Z,1013.24
2019-03-22T09:27:13.853Z,1013.21
2019-03-22T09:28:13.887Z,1013.20
2019-03-22T09:29:13.854Z,1013.21
2019-03-22T09:30:13.823Z,1013.24
2019-03-22T09:31:13.832Z,1013.21
2019-03-22T09:32:13.833Z,1013.21
2019-03-22T09:33:13.867Z,1013.16
2019-03-22T09:34:13.774Z,1013.14
2019-03-22T09:35:13.763Z,1013.10
2019-03-22T09:36:13.752Z,1013.10
2019-03-22T09:37:13.774Z,1013.03
2019-03-22T09:38:13.760Z,1013.08
2019-03-22T09:39:13.743Z,1012.99
2019-03-22T09:40:13.720Z,1013.05
2019-03-22T09:41:13.695Z,1013.00
2019-03-22T09:42:13.692Z,1012.99
2019-03-22T09:43:13.681Z,1013.03
2019-03-22T09:44:13.742Z,1013.01
2019-03-22T09:45:14.440Z,1013.00
2019-03-22T09:46:13.659Z,1012.97
2019-03-22T09:47:16.434Z,1012.99
2019-03-22T09:48:13.616Z,1012.99
2019-03-22T09:49:13.638Z,1012.98
2019-03-22T09:50:13.634Z,1012.97
2019-03-22T09:51:13.611Z,1012.98
2019-03-22T09:52:13.595Z,1012.99
2019-03-22T09:53:13.559Z,1012.96
2019-03-22T09:54:13.600Z,1013.01
2019-03-22T09:55:14.546Z,1012.98
2019-03-22T09:56:13.579Z,1012.98
2019-03-22T09:57:13.522Z,1012.95
2019-03-22T09:58:13.504Z,1012.94
2019-03-22T09:59:13.538Z,1012.91
2019-03-22T10:00:13.482Z,1012.94
2019-03-22T10:01:23.135Z,1012.89
2019-03-22T10:02:14.484Z,1012.92
2019-03-22T10:03:13.447Z,1012.87
2019-03-22T10:04:14.045Z,1012.86
2019-03-22T10:05:13.482Z,1012.89
2019-03-22T10:06:13.448Z,1012.79
2019-03-22T10:07:13.405Z,1012.79
2019-03-22T10:08:13.419Z,1012.79
2019-03-22T10:09:13.406Z,1012.75
2019-03-22T10:10:13.370Z,1012.74
2019-03-22T10:11:13.404Z,1012.66
2019-03-22T10:12:13.379Z,1012.71
2019-03-22T10:13:13.337Z,1012.66
2019-03-22T10:14:13.324Z,1012.70
2019-03-22T10:15:13.339Z,1012.71
2019-03-22T10:16:13.393Z,1012.71
2019-03-22T10:17:13.311Z,1012.65
2019-03-22T10:18:13.279Z,1012.67
2019-03-22T10:19:13.267Z,1012.67
2019-03-22T10:20:13.264Z,1012.64
2019-03-22T10:21:22.402Z,1012.67
2019-03-22T10:22:14.256Z,1012.65
2019-03-22T10:23:13.284Z,1012.66
2019-03-22T10:24:13.211Z,1012.67
2019-03-22T10:25:13.205Z,1012.64
2019-03-22T10:26:13.277Z,1012.65
2019-03-22T10:27:13.202Z,1012.59
2019-03-22T10:28:13.228Z,1012.58
2019-03-22T10:29:13.190Z,1012.60
2019-03-22T10:30:13.145Z,1012.53
2019-03-22T10:31:13.150Z,1012.52
2019-03-22T10:32:13.181Z,1012.51
2019-03-22T10:33:22.583Z,1012.48
2019-03-22T10:34:14.099Z,1012.47
2019-03-22T10:35:25.380Z,1012.44
2019-03-22T10:36:14.094Z,1012.43
2019-03-22T10:37:13.190Z,1012.44
2019-03-22T10:38:16.226Z,1012.41
2019-03-22T10:39:13.070Z,1012.40
2019-03-22T10:40:13.031Z,1012.44
2019-03-22T10:41:13.029Z,1012.38
2019-03-22T10:42:13.013Z,1012.42
2019-03-22T10:43:13.062Z,1012.38
2019-03-22T10:44:13.009Z,1012.39
2019-03-22T10:45:12.975Z,1012.38
2019-03-22T10:46:13.009Z,1012.33
2019-03-22T10:47:13.016Z,1012.33
2019-03-22T10:48:12.971Z,1012.31
2019-03-22T10:49:12.981Z,1012.27
2019-03-22T10:50:12.921Z,1012.25
2019-03-22T10:51:12.961Z,1012.26
2019-03-22T10:52:12.942Z,1012.24
2019-03-22T10:53:12.927Z,1012.23
2019-03-22T10:54:12.989Z,1012.25
2019-03-22T10:55:28.854Z,1012.23
2019-03-22T10:56:13.883Z,1012.15
2019-03-22T10:57:12.856Z,1012.16
2019-03-22T10:58:20.786Z,1012.13
2019-03-22T10:59:13.816Z,1012.13
2019-03-22T11:00:12.806Z,1012.09
2019-03-22T11:01:12.816Z,1012.12
2019-03-22T11:02:12.808Z,1012.05
2019-03-22T11:03:12.774Z,1012.06
2019-03-22T11:04:12.788Z,1012.02
2019-03-22T11:05:12.749Z,1011.98
2019-03-22T11:06:12.740Z,1011.99
2019-03-22T11:07:12.745Z,1012.00
2019-03-22T11:08:12.715Z,1011.96
2019-03-22T11:09:12.704Z,1011.98
2019-03-22T11:10:13.663Z,1011.94
2019-03-22T11:11:12.683Z,1011.93
2019-03-22T11:12:12.768Z,1011.93
2019-03-22T11:13:12.665Z,1011.90
2019-03-22T11:14:12.652Z,1011.89
2019-03-22T11:15:12.639Z,1011.91
2019-03-22T11:16:12.661Z,1011.90
2019-03-22T11:17:12.638Z,1011.86
2019-03-22T11:18:12.603Z,1011.84
2019-03-22T11:19:12.596Z,1011.84
2019-03-22T11:20:12.582Z,1011.84
2019-03-22T11:21:12.572Z,1011.80
2019-03-22T11:22:12.591Z,1011.73
2019-03-22T11:23:12.548Z,1011.74
2019-03-22T11:24:12.537Z,1011.67
2019-03-22T11:25:12.528Z,1011.67
2019-03-22T11:26:12.515Z,1011.63
2019-03-22T11:27:13.745Z,1011.63
2019-03-22T11:28:12.493Z,1011.68
2019-03-22T11:29:12.481Z,1011.62
2019-03-22T11:30:12.473Z,1011.63
2019-03-22T11:31:12.460Z,1011.63
2019-03-22T11:32:12.998Z,1011.58
2019-03-22T11:33:12.451Z,1011.64
2019-03-22T11:34:12.426Z,1011.60
2019-03-22T11:35:12.424Z,1011.62
2019-03-22T11:36:12.406Z,1011.61
2019-03-22T11:37:12.394Z,1011.59
2019-03-22T11:38:12.396Z,1011.52
2019-03-22T11:39:15.723Z,1011.50
2019-03-22T11:40:12.385Z,1011.46
2019-03-22T11:41:12.347Z,1011.49
2019-03-22T11:42:12.338Z,1011.44
2019-03-22T11:43:12.350Z,1011.36
2019-03-22T11:44:12.316Z,1011.37
2019-03-22T11:45:12.304Z,1011.34
2019-03-22T11:46:12.314Z,1011.32
2019-03-22T11:47:12.286Z,1011.36
2019-03-22T11:48:12.269Z,1011.33
2019-03-22T11:49:12.281Z,1011.29
2019-03-22T11:50:12.277Z,1011.30
2019-03-22T11:51:12.236Z,1011.26
2019-03-22T11:52:12.225Z,1011.27
2019-03-22T11:53:12.236Z,1011.31
2019-03-22T11:54:12.224Z,1011.30
2019-03-22T11:55:12.195Z,1011.25
2019-03-22T11:56:12.181Z,1011.24
2019-03-22T11:57:12.174Z,1011.21
2019-03-22T11:58:12.160Z,1011.20
2019-03-22T11:59:12.171Z,1011.20
2019-03-22T12:00:12.138Z,1011.22
2019-03-22T12:01:19.464Z,1011.17
2019-03-22T12:02:22.078Z,1011.17
2019-03-22T12:03:13.104Z,1011.15
2019-03-22T12:04:12.091Z,1011.15
2019-03-22T12:05:12.093Z,1011.17